Time;durP1;ratioP1;P1;durP2;ratioP2;P2;SDS_P1;SDS_P2;PMS_P1;PMS_P2;Temp;Humidity;BMP_temperature;BMP_pressure;BME280_temperature;BME280_humidity;BME280_pressure;Samples;Min_cycle;Max_cycle;Signal;HPM_P1;HPM_P2
2022/01/14 00:00:11;;;;;;;50.88;24.48;;;;;;;-0.91;100.00;102478.97;5074712;28;20445;-68
2022/01/14 00:02:57;;;;;;;48.97;24.15;;;;;;;-0.99;100.00;102493.09;5059905;28;20028;-69
2022/01/14 00:05:43;;;;;;;48.63;24.15;;;;;;;-0.75;100.00;102494.47;5075331;28;20085;-70
2022/01/14 00:08:28;;;;;;;48.53;23.30;;;;;;;-0.58;100.00;102493.72;5075326;28;20051;-69
2022/01/14 00:11:16;;;;;;;47.47;22.98;;;;;;;-1.00;100.00;102493.91;5075419;28;20024;-69
2022/01/14 00:16:52;;;;;;;45.72;22.35;;;;;;;-0.86;100.00;102477.53;5074616;28;20028;-70
2022/01/14 00:32:17;;;;;;;43.97;22.50;;;;;;;-0.57;100.00;102465.50;5052446;28;20373;-69
2022/01/14 00:35:03;;;;;;;46.17;22.13;;;;;;;-0.73;100.00;102480.00;5051571;28;20025;-69
2022/01/14 00:37:48;;;;;;;46.60;21.95;;;;;;;-0.89;100.00;102464.50;5032711;28;20021;-69
2022/01/14 00:40:35;;;;;;;42.42;21.60;;;;;;;-0.72;100.00;102471.50;5032564;28;20132;-69
2022/01/14 00:43:20;;;;;;;42.50;21.38;;;;;;;-0.60;100.00;102457.59;5032640;28;20473;-69
2022/01/14 00:46:07;;;;;;;43.95;22.08;;;;;;;-0.90;100.00;102465.31;5033384;28;20029;-69
2022/01/14 00:48:53;;;;;;;43.17;22.13;;;;;;;-0.69;100.00;102461.34;5032421;28;20014;-70
2022/01/14 00:51:39;;;;;;;45.90;22.63;;;;;;;-0.80;100.00;102465.03;5033520;28;20446;-69
2022/01/14 01:15:49;;;;;;;44.38;22.80;;;;;;;-0.72;100.00;102427.75;5818277;22;20154;-70
2022/01/14 01:18:35;;;;;;;48.03;23.17;;;;;;;-0.75;100.00;102427.56;5046693;28;20028;-69
2022/01/14 01:21:21;;;;;;;46.28;23.33;;;;;;;-0.91;100.00;102412.09;5053063;28;20111;-70
2022/01/14 01:24:09;;;;;;;44.42;22.30;;;;;;;-0.71;100.00;102401.22;5053211;28;20143;-70
2022/01/14 01:26:56;;;;;;;44.63;22.17;;;;;;;-0.70;100.00;102395.25;5039781;28;20338;-69
2022/01/14 01:32:27;;;;;;;44.85;21.98;;;;;;;-0.78;100.00;102383.66;5057567;28;20031;-69
2022/01/14 01:35:16;;;;;;;46.92;22.45;;;;;;;-0.72;100.00;102378.88;5057023;28;20036;-70
2022/01/14 01:38:02;;;;;;;43.40;22.13;;;;;;;-0.83;100.00;102379.97;5056725;28;20035;-69
2022/01/14 01:40:48;;;;;;;41.65;21.30;;;;;;;-0.77;100.00;102365.75;5056321;28;20071;-69
2022/01/14 03:55:54;;;;;;;39.25;19.15;;;;;;;-0.68;100.00;102180.94;6152864;22;19927;31
2022/01/14 03:58:40;;;;;;;37.58;19.88;;;;;;;-0.69;100.00;102170.56;4981101;28;19923;-70
2022/01/14 04:01:26;;;;;;;38.20;18.83;;;;;;;-0.68;100.00;102173.22;4969494;28;20026;-69
2022/01/14 04:04:12;;;;;;;40.28;19.75;;;;;;;-0.77;100.00;102171.88;4974615;28;20050;-69
2022/01/14 04:06:57;;;;;;;39.55;19.48;;;;;;;-0.74;100.00;102169.47;4989072;28;20366;-69
2022/01/14 04:09:43;;;;;;;40.03;20.08;;;;;;;-0.83;100.00;102157.03;4995162;28;20045;-70
2022/01/14 04:12:45;;;;;;;41.20;20.15;;;;;;;-0.77;100.00;102169.28;4981749;28;20407;-70
2022/01/14 05:09:19;;;;;;;39.05;19.98;;;;;;;-0.50;100.00;102094.38;6164999;22;20079;31
2022/01/14 05:12:09;;;;;;;39.50;19.60;;;;;;;-0.52;100.00;102093.41;4977917;28;20061;-69
2022/01/14 05:14:54;;;;;;;39.45;19.48;;;;;;;-0.35;100.00;102094.22;4978055;28;20436;-69
2022/01/14 05:21:23;;;;;;;39.83;19.52;;;;;;;-0.57;100.00;102076.84;4971954;28;20125;-70
2022/01/14 05:24:09;;;;;;;41.03;20.38;;;;;;;-0.45;100.00;102069.72;4978677;28;20102;-69
2022/01/14 05:26:54;;;;;;;40.28;20.25;;;;;;;-0.45;100.00;102068.84;4978495;28;20499;-68
2022/01/14 05:29:40;;;;;;;42.50;20.08;;;;;;;-0.62;100.00;102070.63;4978854;28;20389;-69
2022/01/14 05:32:27;;;;;;;41.58;20.63;;;;;;;-0.58;100.00;102074.19;4978880;28;20113;-70
2022/01/14 05:35:22;;;;;;;38.40;18.83;;;;;;;-0.59;100.00;102083.59;4978718;28;20414;-70
2022/01/14 05:38:08;;;;;;;45.55;20.98;;;;;;;-0.51;100.00;102076.28;4978430;28;20050;-70
2022/01/14 05:40:54;;;;;;;37.83;19.13;;;;;;;-0.60;100.00;102070.69;4979396;28;20403;-69
2022/01/14 05:43:39;;;;;;;38.63;19.75;;;;;;;-0.47;100.00;102079.03;4977703;28;20030;-69
2022/01/14 05:46:25;;;;;;;38.15;20.02;;;;;;;-0.57;100.00;102071.72;4977382;28;20030;-69
2022/01/14 05:49:11;;;;;;;43.58;21.05;;;;;;;-0.46;100.00;102069.66;4978535;28;20105;-70
2022/01/14 05:51:57;;;;;;;42.35;20.55;;;;;;;-0.38;100.00;102073.47;4978347;28;20059;-69
2022/01/14 05:54:43;;;;;;;46.05;20.10;;;;;;;-0.43;100.00;102064.66;4977547;28;20034;-69
2022/01/14 05:57:30;;;;;;;41.85;21.10;;;;;;;-0.36;100.00;102064.16;4978352;28;20464;-69
2022/01/14 06:00:18;;;;;;;41.70;20.15;;;;;;;-0.67;100.00;102058.31;4978887;28;20035;-68
2022/01/14 06:03:04;;;;;;;44.45;20.50;;;;;;;-0.43;100.00;102047.50;4978464;28;20333;-69
2022/01/14 06:05:50;;;;;;;43.42;21.33;;;;;;;-0.36;100.00;102035.81;4977950;28;20027;-69
2022/01/14 06:08:36;;;;;;;41.80;18.92;;;;;;;-0.43;100.00;102023.47;4977375;28;20101;-70
2022/01/14 06:22:46;;;;;;;41.20;18.75;;;;;;;-0.20;100.00;101991.94;5032926;28;20041;-69
2022/01/14 06:25:32;;;;;;;36.95;19.65;;;;;;;-0.27;100.00;101988.19;5039180;28;20038;-70
2022/01/14 06:28:17;;;;;;;37.92;19.90;;;;;;;-0.25;100.00;101993.41;5041622;28;20031;-70
2022/01/14 06:31:03;;;;;;;41.25;19.20;;;;;;;-0.22;100.00;101988.41;5041774;28;20040;-71
2022/01/14 06:33:49;;;;;;;38.15;20.05;;;;;;;0.03;100.00;101981.88;5056025;28;20033;-69
2022/01/14 06:36:35;;;;;;;38.28;20.10;;;;;;;-0.07;100.00;101983.97;5055904;28;20024;-69
2022/01/14 06:39:20;;;;;;;39.35;20.17;;;;;;;-0.02;100.00;101982.47;5056668;28;20041;-70
2022/01/14 06:42:06;;;;;;;37.75;19.02;;;;;;;-0.08;100.00;101970.19;5041966;28;20040;-69
2022/01/14 06:44:52;;;;;;;38.65;19.40;;;;;;;0.03;100.00;101980.97;5054704;28;20037;-69
2022/01/14 06:51:20;;;;;;;43.30;19.40;;;;;;;0.33;100.00;101971.13;5056095;28;20025;-70
2022/01/14 06:54:06;;;;;;;40.95;20.40;;;;;;;0.23;100.00;101975.00;5056439;28;20020;-69
2022/01/14 06:56:52;;;;;;;40.60;19.73;;;;;;;0.38;100.00;101967.06;5039949;28;20025;-70
2022/01/14 06:59:37;;;;;;;42.30;19.38;;;;;;;0.32;100.00;101974.53;5055756;28;20036;-70
2022/01/14 07:02:23;;;;;;;38.33;19.42;;;;;;;0.41;100.00;101993.84;5054426;28;20410;-69
2022/01/14 07:05:09;;;;;;;45.75;21.08;;;;;;;0.54;100.00;101969.47;5054653;28;20029;-71
2022/01/14 07:07:55;;;;;;;42.13;20.70;;;;;;;0.79;100.00;101956.78;5040037;28;20035;-69
2022/01/14 07:10:41;;;;;;;39.20;20.30;;;;;;;0.63;100.00;101950.09;5055750;28;20365;-70
2022/01/14 07:13:27;;;;;;;40.63;20.23;;;;;;;0.79;100.00;101939.63;5054299;28;20025;-70
2022/01/14 07:16:13;;;;;;;39.83;20.42;;;;;;;1.25;100.00;101938.06;5040537;28;20048;-70
2022/01/14 07:19:00;;;;;;;45.08;20.65;;;;;;;1.28;100.00;101927.84;5040882;28;20031;-70
2022/01/14 07:21:46;;;;;;;39.88;20.60;;;;;;;1.19;100.00;101931.75;5053677;28;20130;-69
2022/01/14 07:24:32;;;;;;;38.17;20.35;;;;;;;1.41;100.00;101918.88;5041763;28;20043;-70
2022/01/14 07:27:18;;;;;;;38.47;20.95;;;;;;;1.31;100.00;101909.91;5054039;28;20024;-70
2022/01/14 07:30:08;;;;;;;39.72;20.67;;;;;;;1.46;100.00;101907.91;5055685;28;20108;-69
2022/01/14 07:32:53;;;;;;;41.78;21.20;;;;;;;1.54;100.00;101911.66;5055038;28;20029;-71
2022/01/14 07:35:42;;;;;;;41.55;19.13;;;;;;;1.27;100.00;101905.44;5054732;28;20043;-71
2022/01/14 07:38:27;;;;;;;43.85;21.65;;;;;;;1.58;100.00;101900.63;5054227;28;20025;-71
2022/01/14 07:41:13;;;;;;;39.05;21.23;;;;;;;1.82;100.00;101898.94;5054325;28;20028;-72
2022/01/14 07:43:59;;;;;;;40.20;20.25;;;;;;;1.70;100.00;101914.00;5055080;28;20140;-70
2022/01/14 07:46:45;;;;;;;39.22;20.67;;;;;;;1.83;100.00;101913.59;5054617;28;20028;-71
2022/01/14 07:49:31;;;;;;;38.88;19.77;;;;;;;1.94;100.00;101919.16;5053318;28;20043;-71
2022/01/14 07:56:00;;;;;;;35.63;18.60;;;;;;;2.39;100.00;101924.25;5054769;28;20527;-70
2022/01/14 07:58:46;;;;;;;39.30;19.33;;;;;;;2.64;100.00;101921.66;5053240;28;20071;-70
2022/01/14 08:01:35;;;;;;;37.67;19.98;;;;;;;2.97;100.00;101908.97;5053918;28;20036;-71
2022/01/14 08:04:22;;;;;;;39.38;19.85;;;;;;;3.16;100.00;101911.28;5054346;28;20033;-70
2022/01/14 08:07:08;;;;;;;37.38;18.92;;;;;;;3.28;100.00;101912.53;5039424;28;20040;-71
2022/01/14 08:09:54;;;;;;;32.05;17.95;;;;;;;3.10;100.00;101909.38;5052928;28;20522;-70
2022/01/14 08:12:44;;;;;;;33.10;18.20;;;;;;;3.03;100.00;101906.53;5053175;28;20193;-70
2022/01/14 08:15:31;;;;;;;33.72;18.38;;;;;;;3.38;100.00;101899.03;5143653;23;20029;-69
2022/01/14 08:18:16;;;;;;;37.55;19.55;;;;;;;3.57;100.00;101895.25;5031889;28;20052;-72
2022/01/14 08:21:03;;;;;;;36.72;18.55;;;;;;;4.01;100.00;101894.81;5033098;28;20029;-71
2022/01/14 08:23:49;;;;;;;34.17;18.73;;;;;;;3.97;100.00;101898.16;5053966;28;20381;-72
2022/01/14 08:26:35;;;;;;;32.42;18.40;;;;;;;3.81;100.00;101901.16;5028026;28;20045;-72
2022/01/14 08:29:21;;;;;;;33.20;18.23;;;;;;;4.01;100.00;101895.72;5033138;28;20104;-71
2022/01/14 08:32:07;;;;;;;35.80;19.33;;;;;;;3.84;100.00;101886.59;5033014;28;20026;-71
2022/01/14 08:34:53;;;;;;;37.65;19.35;;;;;;;4.31;100.00;101887.88;5034188;28;20022;-70
2022/01/14 08:38:00;;;;;;;34.65;18.45;;;;;;;4.01;100.00;101876.66;5033555;28;20029;-70
2022/01/14 08:40:46;;;;;;;34.58;18.40;;;;;;;3.60;100.00;101867.75;5038544;28;20072;-70
2022/01/14 08:43:32;;;;;;;33.08;17.95;;;;;;;4.03;100.00;101869.81;5037160;28;20369;-72
2022/01/14 08:46:17;;;;;;;34.00;18.27;;;;;;;4.65;100.00;101860.22;5037583;28;20528;-70
2022/01/14 08:49:04;;;;;;;33.30;18.60;;;;;;;5.09;100.00;101859.56;5037739;28;20122;-69
2022/01/14 08:51:50;;;;;;;31.17;17.35;;;;;;;5.04;100.00;101857.69;5037359;28;20335;-71
2022/01/14 08:54:36;;;;;;;34.65;17.85;;;;;;;4.75;100.00;101850.94;5037357;28;20083;-71
2022/01/14 08:57:22;;;;;;;33.00;17.02;;;;;;;4.63;100.00;101848.06;5037815;28;20318;-72
2022/01/14 09:03:50;;;;;;;35.50;18.75;;;;;;;4.45;100.00;101830.31;5037683;28;20118;-71
2022/01/14 09:06:35;;;;;;;34.50;18.40;;;;;;;4.14;100.00;101817.41;5036847;28;20033;-70
2022/01/14 09:09:21;;;;;;;30.05;17.05;;;;;;;3.95;100.00;101811.69;5022883;28;20386;-70
2022/01/14 09:12:30;;;;;;;31.08;17.50;;;;;;;4.17;100.00;101801.03;5036848;28;20029;-75
2022/01/14 09:17:43;;;;;;;33.88;17.30;;;;;;;4.90;100.00;101797.66;5281073;22;20049;-75
2022/01/14 09:20:29;;;;;;;31.65;17.02;;;;;;;4.90;100.00;101789.84;5076217;28;20094;-73
2022/01/14 09:23:17;;;;;;;29.65;16.85;;;;;;;5.09;100.00;101786.81;5077498;28;20032;-75
2022/01/14 09:26:03;;;;;;;27.15;16.65;;;;;;;5.16;100.00;101774.84;5064395;28;20032;-75
2022/01/14 09:28:49;;;;;;;31.30;17.67;;;;;;;4.98;100.00;101761.44;5078601;28;20025;-74
2022/01/14 09:31:35;;;;;;;33.72;17.88;;;;;;;4.82;100.00;101752.47;5078711;28;20020;-74
2022/01/14 09:34:21;;;;;;;33.58;17.63;;;;;;;4.86;100.00;101736.09;5076764;28;20031;-74
2022/01/14 09:37:07;;;;;;;32.58;16.98;;;;;;;4.80;100.00;101732.50;5077387;28;20032;-76
2022/01/14 09:39:53;;;;;;;32.30;17.15;;;;;;;4.75;100.00;101723.75;5077709;28;20119;-78
2022/01/14 09:42:39;;;;;;;33.08;17.63;;;;;;;4.69;100.00;101716.69;5063246;28;20043;-74
2022/01/14 09:45:26;;;;;;;31.30;17.48;;;;;;;4.79;100.00;101721.22;5062150;28;20411;-75
2022/01/14 09:48:15;;;;;;;33.58;16.90;;;;;;;4.17;100.00;101702.50;5077460;28;20464;-74
2022/01/14 09:51:02;;;;;;;33.08;17.02;;;;;;;4.18;100.00;101696.47;5075838;28;20024;-76
2022/01/14 10:05:37;;;;;;;37.28;17.58;;;;;;;4.50;100.00;101646.19;6008558;23;20020;-71
2022/01/14 10:08:27;;;;;;;29.17;16.90;;;;;;;4.43;100.00;101649.50;5056921;28;20361;-70
2022/01/14 10:11:13;;;;;;;33.60;18.58;;;;;;;4.43;100.00;101637.38;5056904;28;20036;-71
2022/01/14 10:14:20;;;;;;;33.28;17.75;;;;;;;4.88;100.00;101621.91;5056650;28;20039;-72
2022/01/14 10:17:09;;;;;;;29.85;17.23;;;;;;;4.53;100.00;101621.19;5056517;28;20032;-71
2022/01/14 10:19:54;;;;;;;32.03;17.58;;;;;;;4.69;100.00;101620.66;5056500;28;20025;-70
2022/01/14 10:22:49;;;;;;;28.00;16.33;;;;;;;4.73;100.00;101619.88;5056432;28;20029;-71
2022/01/14 10:25:35;;;;;;;35.55;17.50;;;;;;;4.79;100.00;101611.34;5076398;28;20472;-71
2022/01/14 10:28:21;;;;;;;30.92;17.85;;;;;;;5.01;100.00;101618.69;5062191;28;20052;-71
2022/01/14 10:31:06;;;;;;;30.27;17.80;;;;;;;5.24;100.00;101591.44;5061912;28;20020;-71
2022/01/14 10:34:16;;;;;;;33.67;18.10;;;;;;;5.16;100.00;101601.66;5075579;28;20369;-71
2022/01/14 10:37:09;;;;;;;28.13;17.05;;;;;;;5.00;100.00;101611.75;5076153;28;20460;-71
2022/01/14 10:39:56;;;;;;;29.70;17.08;;;;;;;5.23;100.00;101568.91;5075871;28;20032;-73
2022/01/14 10:42:43;;;;;;;31.13;15.77;;;;;;;5.30;100.00;101574.22;5076241;28;20039;-71
2022/01/14 10:45:29;;;;;;;30.58;16.75;;;;;;;5.27;100.00;101576.75;5075887;28;20475;-71
2022/01/14 10:48:36;;;;;;;30.63;17.17;;;;;;;5.37;100.00;101567.41;5076720;28;20495;-71
2022/01/14 10:51:25;;;;;;;28.27;15.68;;;;;;;5.51;100.00;101571.13;5075875;28;20055;-71
2022/01/14 10:54:11;;;;;;;28.23;16.27;;;;;;;5.52;100.00;101566.78;5076427;28;20036;-72
2022/01/14 10:57:11;;;;;;;26.50;15.32;;;;;;;5.73;100.00;101559.31;5061596;28;20062;-72
2022/01/14 11:00:14;;;;;;;30.27;16.73;;;;;;;5.73;100.00;101542.00;5061777;28;20029;-71
2022/01/14 11:03:00;;;;;;;30.38;15.90;;;;;;;5.93;100.00;101529.31;5075705;28;20087;-70
2022/01/14 11:05:45;;;;;;;33.47;15.65;;;;;;;5.67;100.00;101535.84;5060982;28;20358;-70
2022/01/14 11:08:35;;;;;;;24.50;14.80;;;;;;;5.70;100.00;101523.75;5075570;28;20444;-70
2022/01/14 11:25:24;;;;;;;25.40;14.43;;;;;;;6.25;100.00;101533.22;5128221;23;20551;-71
2022/01/14 11:28:15;;;;;;;28.02;15.13;;;;;;;6.48;100.00;101524.00;5054407;28;20426;-71
2022/01/14 11:31:24;;;;;;;26.88;15.73;;;;;;;6.80;100.00;101520.00;5055673;28;20116;-70
2022/01/14 11:34:32;;;;;;;24.85;14.95;;;;;;;6.76;100.00;101502.59;5039749;28;20128;-71
2022/01/14 11:37:34;;;;;;;24.73;14.27;;;;;;;6.83;100.00;101507.88;5040202;28;20025;-70
2022/01/14 11:55:21;;;;;;;24.33;15.30;;;;;;;7.07;100.00;101483.81;5089806;23;20061;-71
2022/01/14 11:58:09;;;;;;;25.70;14.98;;;;;;;6.95;100.00;101463.72;5038079;28;20053;-70
2022/01/14 12:00:57;;;;;;;25.65;15.43;;;;;;;6.93;100.00;101462.84;5055460;28;20029;-70
2022/01/14 12:03:52;;;;;;;24.15;14.07;;;;;;;6.78;100.00;101449.69;5053336;28;20031;-71
2022/01/14 12:06:50;;;;;;;23.40;14.10;;;;;;;6.64;100.00;101435.66;5053991;28;20025;-71
2022/01/14 12:10:03;;;;;;;25.55;14.23;;;;;;;7.04;100.00;101431.69;5053266;28;20417;-70
2022/01/14 12:12:50;;;;;;;23.33;13.98;;;;;;;7.12;100.00;101435.22;5053000;28;20040;-71
2022/01/14 12:15:51;;;;;;;20.70;12.80;;;;;;;7.16;100.00;101429.19;5039629;28;20029;-71
2022/01/14 12:18:49;;;;;;;24.20;13.65;;;;;;;7.10;100.00;101422.19;5054024;28;20108;-71
2022/01/14 12:21:37;;;;;;;23.42;12.82;;;;;;;7.07;100.00;101416.94;5053017;28;20033;-71
2022/01/14 12:24:27;;;;;;;22.77;13.43;;;;;;;7.18;100.00;101414.41;5053405;28;20017;-70
2022/01/14 12:27:22;;;;;;;26.20;13.40;;;;;;;7.20;100.00;101412.69;5053443;28;20032;-71
2022/01/14 12:30:22;;;;;;;21.80;12.57;;;;;;;7.32;100.00;101425.81;5054162;28;20040;-71
2022/01/14 12:33:08;;;;;;;20.95;12.50;;;;;;;7.45;100.00;101418.09;5053109;28;20024;-70
2022/01/14 12:38:31;;;;;;;20.45;12.77;;;;;;;7.12;100.00;101399.59;5488319;22;20485;-71
2022/01/14 12:41:17;;;;;;;23.33;13.10;;;;;;;7.18;100.00;101384.03;5072503;28;20024;-71
2022/01/14 12:44:03;;;;;;;22.83;12.27;;;;;;;7.17;100.00;101386.59;5073215;28;20082;-71
2022/01/14 12:47:06;;;;;;;23.45;12.38;;;;;;;7.09;100.00;101380.47;5073013;28;20025;-72
2022/01/14 12:49:53;;;;;;;23.40;12.50;;;;;;;7.12;100.00;101370.09;5074464;28;20108;-71
2022/01/14 12:52:47;;;;;;;23.33;12.25;;;;;;;7.21;100.00;101357.09;5074446;28;20364;-71
2022/01/14 12:55:36;;;;;;;19.27;12.02;;;;;;;6.99;100.00;101344.81;5073882;28;20039;-70
2022/01/14 13:04:39;;;;;;;19.30;11.57;;;;;;;7.14;100.00;101318.84;5889575;22;20053;-74
2022/01/14 13:07:25;;;;;;;18.75;11.63;;;;;;;6.92;100.00;101328.28;5052510;28;20096;-74
2022/01/14 13:10:13;;;;;;;17.20;10.55;;;;;;;7.01;100.00;101317.91;5053648;28;20029;-74
2022/01/14 13:13:02;;;;;;;21.52;12.05;;;;;;;7.06;100.00;101331.81;5053592;28;20120;-75
2022/01/14 13:15:47;;;;;;;17.15;10.75;;;;;;;7.07;100.00;101322.28;5054108;28;20044;-75
2022/01/14 13:18:43;;;;;;;21.67;11.88;;;;;;;7.05;100.00;101316.19;5055039;28;20032;-78
2022/01/14 13:38:07;;;;;;;16.20;10.07;;;;;;;7.02;100.00;101297.91;5432327;22;20057;-71
2022/01/14 13:40:55;;;;;;;16.30;10.60;;;;;;;7.07;100.00;101304.91;5056620;28;20453;-71
2022/01/14 13:43:41;;;;;;;15.57;9.93;;;;;;;7.19;100.00;101289.34;5075580;28;20291;-71
2022/01/14 13:46:32;;;;;;;13.95;9.20;;;;;;;7.08;100.00;101277.13;5060956;28;20020;-70
2022/01/14 13:49:21;;;;;;;14.88;8.90;;;;;;;7.05;100.00;101275.38;5062593;28;20415;-71
2022/01/14 13:52:13;;;;;;;15.63;8.93;;;;;;;7.33;100.00;101279.00;5077446;28;20029;-71
2022/01/14 13:54:59;;;;;;;14.30;8.95;;;;;;;7.10;100.00;101275.38;5063047;28;20441;-70
2022/01/14 13:57:44;;;;;;;14.15;8.32;;;;;;;7.15;100.00;101258.91;5077461;28;20075;-72
2022/01/14 14:00:32;;;;;;;13.63;8.77;;;;;;;7.03;100.00;101245.84;5076988;28;20067;-71
2022/01/14 14:03:42;;;;;;;20.45;8.95;;;;;;;7.12;100.00;101234.59;5076799;28;20361;-71
2022/01/14 14:06:35;;;;;;;15.50;9.43;;;;;;;7.15;100.00;101232.00;5076931;28;20028;-71
2022/01/14 14:09:26;;;;;;;18.67;9.70;;;;;;;7.01;100.00;101224.13;5077294;28;20024;-71
2022/01/14 14:22:31;;;;;;;16.08;8.88;;;;;;;6.79;100.00;101216.19;5076291;28;20107;-71
2022/01/14 14:25:29;;;;;;;13.82;7.90;;;;;;;6.68;100.00;101226.56;5077099;28;20028;-71
2022/01/14 14:28:16;;;;;;;13.30;7.90;;;;;;;6.66;100.00;101209.16;5061069;28;20020;-71
2022/01/14 14:31:03;;;;;;;15.25;7.93;;;;;;;6.77;100.00;101194.47;5048122;28;20040;-71
2022/01/14 14:33:49;;;;;;;14.05;7.85;;;;;;;6.55;100.00;101210.84;5076216;28;20032;-70
2022/01/14 14:36:36;;;;;;;14.15;8.13;;;;;;;6.54;100.00;101202.16;5075447;28;20421;-73
2022/01/14 14:39:26;;;;;;;18.70;8.20;;;;;;;6.44;100.00;101197.75;5076066;28;20028;-70
2022/01/14 14:58:49;;;;;;;14.13;9.05;;;;;;;6.40;100.00;101185.59;5723694;22;20064;-71
2022/01/14 15:01:35;;;;;;;16.15;9.95;;;;;;;6.29;100.00;101197.63;5054554;28;20178;-71
2022/01/14 15:12:53;;;;;;;18.70;10.27;;;;;;;6.15;100.00;101172.38;5214580;22;20148;-70
2022/01/14 15:18:25;;;;;;;19.75;10.25;;;;;;;6.02;100.00;101181.81;5055197;28;20032;-71
2022/01/14 15:21:10;;;;;;;18.45;10.07;;;;;;;6.08;100.00;101175.78;5055281;28;20025;-70
2022/01/14 15:23:56;;;;;;;16.15;10.15;;;;;;;6.18;100.00;101170.66;5055603;28;20090;-70
2022/01/14 15:26:43;;;;;;;16.63;9.75;;;;;;;5.86;100.00;101176.47;5055146;28;20056;-74
2022/01/14 15:29:29;;;;;;;17.27;10.05;;;;;;;5.98;100.00;101174.00;5054469;28;20036;-74
2022/01/14 15:32:15;;;;;;;16.98;10.82;;;;;;;5.66;100.00;101162.41;5055260;28;20037;-73
2022/01/14 15:35:00;;;;;;;19.60;12.00;;;;;;;5.88;100.00;101167.84;5056521;28;20028;-73
2022/01/14 15:37:47;;;;;;;17.73;10.38;;;;;;;5.75;100.00;101157.28;5041192;28;20032;-73
2022/01/14 15:40:37;;;;;;;20.63;11.63;;;;;;;5.79;100.00;101174.66;5055441;28;20099;-73
2022/01/14 15:43:24;;;;;;;19.02;11.38;;;;;;;5.60;100.00;101172.72;5041146;28;20102;-73
2022/01/14 15:46:10;;;;;;;22.75;11.90;;;;;;;5.85;100.00;101173.00;5040191;28;20025;-74
2022/01/14 16:00:27;;;;;;;16.80;10.05;;;;;;;5.99;100.00;101167.91;6145959;22;20012;-73
2022/01/14 16:03:13;;;;;;;17.55;10.02;;;;;;;5.81;100.00;101166.03;5031704;28;20064;-74
2022/01/14 16:05:59;;;;;;;16.25;10.00;;;;;;;5.72;100.00;101163.31;5027270;28;20063;-74
2022/01/14 16:08:45;;;;;;;19.63;10.65;;;;;;;5.69;100.00;101154.59;5013562;28;20419;-74
2022/01/14 16:11:35;;;;;;;16.77;10.32;;;;;;;5.85;100.00;101143.50;5000577;28;20041;-74
2022/01/14 16:14:25;;;;;;;18.92;11.00;;;;;;;5.57;100.00;101134.59;5013968;28;20105;-73
2022/01/14 16:17:11;;;;;;;18.50;11.20;;;;;;;5.40;100.00;101126.63;5015617;28;20442;-73
2022/01/14 16:31:55;;;;;;;17.10;10.18;;;;;;;5.42;100.00;101124.03;5070600;22;20053;-70
2022/01/14 16:34:41;;;;;;;15.50;9.07;;;;;;;5.44;100.00;101118.00;5052302;28;20029;-71
2022/01/14 16:37:27;;;;;;;13.88;8.93;;;;;;;5.55;100.00;101125.91;5054071;28;20022;-71
2022/01/14 16:40:13;;;;;;;15.90;9.45;;;;;;;5.55;100.00;101117.25;5053351;28;20075;-72
2022/01/14 16:42:59;;;;;;;15.75;9.15;;;;;;;5.61;100.00;101104.28;5053732;28;20035;-71
2022/01/14 16:45:45;;;;;;;14.52;8.85;;;;;;;5.54;100.00;101097.31;5054126;28;20037;-72
2022/01/14 16:48:33;;;;;;;16.90;9.45;;;;;;;5.72;100.00;101110.44;5040427;28;20029;-71
2022/01/14 16:51:19;;;;;;;15.65;9.80;;;;;;;5.68;100.00;101106.97;5054040;28;20021;-71
2022/01/14 16:54:05;;;;;;;19.55;9.50;;;;;;;5.59;100.00;101080.91;5039716;28;20361;-71
2022/01/14 16:56:50;;;;;;;19.02;9.57;;;;;;;5.67;100.00;101088.75;5039885;28;20445;-71
2022/01/14 16:59:36;;;;;;;16.40;8.98;;;;;;;5.55;100.00;101101.66;5055363;28;20428;-70
2022/01/14 17:02:22;;;;;;;11.48;7.85;;;;;;;5.43;100.00;101098.94;5042346;28;20033;-70
2022/01/14 17:05:09;;;;;;;15.10;8.73;;;;;;;5.42;100.00;101094.59;5058158;28;20041;-70
2022/01/14 17:07:54;;;;;;;16.20;9.55;;;;;;;5.55;100.00;101093.84;5057178;28;20029;-71
2022/01/14 17:10:40;;;;;;;15.60;9.23;;;;;;;5.43;100.00;101095.47;5057784;28;20029;-70
2022/01/14 17:13:26;;;;;;;14.98;9.05;;;;;;;5.44;100.00;101101.56;5058251;28;20021;-71
2022/01/14 17:16:12;;;;;;;15.18;9.40;;;;;;;5.53;100.00;101098.16;5057508;28;20044;-70
2022/01/14 17:22:42;;;;;;;17.00;9.43;;;;;;;5.37;100.00;101102.34;5211553;23;20072;-71
2022/01/14 17:25:28;;;;;;;14.93;8.82;;;;;;;5.30;100.00;101116.13;5057280;28;20044;-71
2022/01/14 17:28:14;;;;;;;15.43;9.38;;;;;;;5.13;100.00;101115.09;5057320;28;20036;-71
2022/01/14 17:31:00;;;;;;;16.83;9.45;;;;;;;5.18;100.00;101111.69;5058095;28;20338;-69
2022/01/14 17:33:47;;;;;;;16.55;10.02;;;;;;;5.04;100.00;101094.22;5042779;28;20519;-71
2022/01/14 17:36:33;;;;;;;17.02;10.05;;;;;;;4.94;100.00;101092.38;5044054;28;20445;-70
2022/01/14 17:39:20;;;;;;;18.58;10.20;;;;;;;4.93;100.00;101088.03;5057358;28;20040;-71
2022/01/14 17:42:06;;;;;;;18.88;10.23;;;;;;;4.77;100.00;101092.19;5043249;28;20025;-70
2022/01/14 17:44:54;;;;;;;15.52;9.52;;;;;;;4.85;100.00;101089.66;5056633;28;20109;-71
2022/01/14 17:47:44;;;;;;;19.30;10.60;;;;;;;4.93;100.00;101082.84;5043628;28;20067;-71
2022/01/14 17:50:33;;;;;;;14.82;9.23;;;;;;;4.99;100.00;101094.16;5056974;28;20408;-71
2022/01/14 17:59:36;;;;;;;17.45;10.32;;;;;;;4.92;100.00;101099.28;5685627;22;20049;-71
2022/01/14 18:02:22;;;;;;;15.60;9.60;;;;;;;4.91;100.00;101084.56;5041526;28;20092;-72
2022/01/14 18:05:09;;;;;;;15.70;9.93;;;;;;;5.15;100.00;101077.88;5041333;28;20017;-71
2022/01/14 18:07:54;;;;;;;16.70;9.65;;;;;;;5.07;100.00;101079.53;5037145;28;20379;-71
2022/01/14 18:10:41;;;;;;;14.95;9.80;;;;;;;4.99;100.00;101090.72;5034844;28;20029;-72
2022/01/14 18:13:37;;;;;;;17.38;10.02;;;;;;;4.88;100.00;101081.94;5035955;28;20021;-72
2022/01/14 18:16:24;;;;;;;16.83;9.48;;;;;;;4.83;100.00;101075.81;5035348;28;20485;-71
2022/01/14 18:19:10;;;;;;;18.67;9.85;;;;;;;4.95;100.00;101075.97;5036017;28;20040;-72
2022/01/14 18:21:56;;;;;;;16.83;10.15;;;;;;;4.86;100.00;101065.44;5036023;28;20037;-73
2022/01/14 18:24:42;;;;;;;18.30;10.48;;;;;;;4.72;100.00;101062.72;5034623;28;20122;-73
2022/01/14 18:27:28;;;;;;;15.98;9.73;;;;;;;4.72;100.00;101057.53;5020178;28;20037;-72
2022/01/14 18:30:15;;;;;;;18.80;9.93;;;;;;;4.83;100.00;101048.13;5036602;28;20017;-73
2022/01/14 18:33:01;;;;;;;18.60;10.63;;;;;;;4.65;100.00;101044.44;5020750;28;20104;-72
2022/01/14 18:35:46;;;;;;;22.55;12.63;;;;;;;4.60;100.00;101026.25;5034771;28;20040;-72
2022/01/14 18:38:32;;;;;;;20.30;11.35;;;;;;;4.69;100.00;101034.13;5034417;28;20032;-71
2022/01/14 18:41:18;;;;;;;18.63;11.10;;;;;;;4.58;100.00;101034.84;5022191;28;20025;-72
2022/01/14 18:44:10;;;;;;;18.27;11.23;;;;;;;4.42;100.00;101033.81;5034556;28;20029;-72
2022/01/14 18:46:56;;;;;;;19.75;11.20;;;;;;;4.54;100.00;101036.56;5034804;28;20095;-73
2022/01/14 18:49:42;;;;;;;19.42;11.38;;;;;;;4.54;100.00;101033.06;5022241;28;20030;-73
2022/01/14 18:52:28;;;;;;;18.92;11.52;;;;;;;4.66;100.00;101041.88;5034239;28;20112;-73
2022/01/14 18:55:14;;;;;;;18.17;10.43;;;;;;;4.66;100.00;101041.00;5022066;28;20041;-73
2022/01/14 18:58:01;;;;;;;22.73;12.02;;;;;;;4.68;100.00;101050.56;5020247;28;20025;-72
2022/01/14 19:00:47;;;;;;;21.40;11.82;;;;;;;4.55;100.00;101038.28;5034643;28;20056;-73
2022/01/14 19:03:32;;;;;;;22.67;11.23;;;;;;;4.61;100.00;101025.41;5034675;28;20032;-72
2022/01/14 19:06:19;;;;;;;19.58;11.05;;;;;;;4.41;100.00;101055.41;5035186;28;20398;-72
2022/01/14 19:09:04;;;;;;;18.75;10.85;;;;;;;4.58;100.00;101043.53;5035591;28;20029;-73
2022/01/14 19:11:52;;;;;;;17.02;10.73;;;;;;;4.70;100.00;101055.75;5035318;28;20512;-73
2022/01/14 19:14:38;;;;;;;17.25;11.00;;;;;;;4.51;100.00;101059.84;5021269;28;20063;-73